createdAt,value
2022-08-19T00:02:13.382Z,22.55
2022-08-19T00:04:47.644Z,22.50
2022-08-19T00:07:22.349Z,22.47
2022-08-19T00:09:54.954Z,22.44
2022-08-19T00:12:30.423Z,22.43
2022-08-19T00:15:02.863Z,22.42
2022-08-19T00:17:35.638Z,22.39
2022-08-19T00:20:11.937Z,22.36
2022-08-19T00:22:45.470Z,22.37
2022-08-19T00:25:19.322Z,22.37
2022-08-19T00:27:53.478Z,22.38
2022-08-19T00:30:27.074Z,22.33
2022-08-19T00:33:11.143Z,22.31
2022-08-19T00:35:43.984Z,22.30
2022-08-19T00:38:16.435Z,22.27
2022-08-19T00:40:51.401Z,22.21
2022-08-19T00:43:26.472Z,22.15
2022-08-19T00:45:58.862Z,22.10
2022-08-19T00:48:31.495Z,22.06
2022-08-19T00:51:03.916Z,22.07
2022-08-19T00:53:36.609Z,22.08
2022-08-19T00:56:09.769Z,22.11
2022-08-19T00:58:42.584Z,22.13
2022-08-19T01:01:15.575Z,22.11
2022-08-19T01:03:56.774Z,22.11
2022-08-19T01:06:22.785Z,22.08
2022-08-19T01:08:56.540Z,22.07
2022-08-19T01:11:34.943Z,22.06
2022-08-19T01:14:07.454Z,22.10
2022-08-19T01:16:40.728Z,22.12
2022-08-19T01:19:30.800Z,22.10
2022-08-19T01:22:32.892Z,22.06
2022-08-19T01:25:01.259Z,22.04
2022-08-19T01:27:43.866Z,22.02
2022-08-19T01:30:23.788Z,21.98
2022-08-19T01:32:57.563Z,22.00
2022-08-19T01:35:32.582Z,21.95
2022-08-19T01:38:11.193Z,21.91
2022-08-19T01:40:45.024Z,21.88
2022-08-19T01:43:17.444Z,21.88
2022-08-19T01:45:49.853Z,21.89
2022-08-19T01:48:23.064Z,21.90
2022-08-19T01:50:55.623Z,21.89
2022-08-19T01:53:33.583Z,21.85
2022-08-19T01:56:02.681Z,21.77
2022-08-19T01:58:42.575Z,21.72
2022-08-19T02:01:15.274Z,21.74
2022-08-19T02:03:48.594Z,21.75
2022-08-19T02:06:21.473Z,21.76
2022-08-19T02:08:57.358Z,21.79
2022-08-19T02:11:40.613Z,21.82
2022-08-19T02:14:13.073Z,21.81
2022-08-19T02:16:46.294Z,21.78
2022-08-19T02:19:19.114Z,21.70
2022-08-19T02:21:51.592Z,21.66
2022-08-19T02:24:23.978Z,21.64
2022-08-19T02:26:57.622Z,21.54
2022-08-19T02:29:31.046Z,21.45
2022-08-19T02:32:03.579Z,21.42
2022-08-19T02:34:36.609Z,21.35
2022-08-19T02:37:10.691Z,21.33
2022-08-19T02:39:43.185Z,21.36
2022-08-19T02:42:15.705Z,21.34
2022-08-19T02:44:50.058Z,21.21
2022-08-19T02:47:22.475Z,21.13
2022-08-19T02:49:56.408Z,21.07
2022-08-19T02:52:29.806Z,21.09
2022-08-19T02:55:02.604Z,21.08
2022-08-19T02:57:35.508Z,21.09
2022-08-19T03:00:12.806Z,21.10
2022-08-19T03:02:45.851Z,21.09
2022-08-19T03:05:18.401Z,21.12
2022-08-19T03:07:53.700Z,21.16
2022-08-19T03:10:26.588Z,21.19
2022-08-19T03:12:59.793Z,21.22
2022-08-19T03:15:33.596Z,21.26
2022-08-19T03:18:06.391Z,21.24
2022-08-19T03:20:49.982Z,21.18
2022-08-19T03:23:22.721Z,21.14
2022-08-19T03:25:58.291Z,21.15
2022-08-19T03:28:29.892Z,21.16
2022-08-19T03:31:06.325Z,21.19
2022-08-19T03:33:41.466Z,21.23
2022-08-19T03:36:24.317Z,21.33
2022-08-19T03:39:00.239Z,21.38
2022-08-19T03:41:45.792Z,21.45
2022-08-19T03:44:12.740Z,21.54
2022-08-19T03:46:45.887Z,21.52
2022-08-19T03:49:19.897Z,21.58
2022-08-19T03:51:52.573Z,21.67
2022-08-19T03:54:26.130Z,21.70
2022-08-19T03:56:58.989Z,21.65
2022-08-19T03:59:35.552Z,21.67
2022-08-19T04:02:13.277Z,21.74
2022-08-19T04:04:46.210Z,21.86
2022-08-19T04:07:21.556Z,21.91
2022-08-19T04:09:54.520Z,21.97
2022-08-19T04:12:27.088Z,22.06
2022-08-19T04:14:59.615Z,22.14
2022-08-19T04:17:33.280Z,22.18
2022-08-19T04:20:07.270Z,22.27
2022-08-19T04:22:39.912Z,22.35
2022-08-19T04:25:13.323Z,22.34
2022-08-19T04:27:47.506Z,22.32
2022-08-19T04:30:22.199Z,22.32
2022-08-19T04:32:54.962Z,22.31
2022-08-19T04:35:27.569Z,22.31
2022-08-19T04:38:00.150Z,22.25
2022-08-19T04:40:49.925Z,22.28
2022-08-19T04:43:24.134Z,22.35
2022-08-19T04:46:00.853Z,22.40
2022-08-19T04:48:32.961Z,22.40
2022-08-19T04:51:11.392Z,22.25
2022-08-19T04:53:44.128Z,22.24
2022-08-19T04:56:18.428Z,22.35
2022-08-19T04:58:52.626Z,22.36
2022-08-19T05:01:29.404Z,22.48
2022-08-19T05:04:06.657Z,22.53
2022-08-19T05:06:40.218Z,22.56
2022-08-19T05:09:12.808Z,22.62
2022-08-19T05:11:45.335Z,22.72
2022-08-19T05:14:17.824Z,22.78
2022-08-19T05:16:53.573Z,22.85
2022-08-19T05:19:42.075Z,22.99
2022-08-19T05:22:32.476Z,23.14
2022-08-19T05:25:13.790Z,23.30
2022-08-19T05:27:47.531Z,23.45
2022-08-19T05:30:24.520Z,23.55
2022-08-19T05:32:56.560Z,23.64
2022-08-19T05:35:29.549Z,23.66
2022-08-19T05:38:03.675Z,23.68
2022-08-19T05:40:41.130Z,23.72
2022-08-19T05:43:15.615Z,23.82
2022-08-19T05:45:48.151Z,24.02
2022-08-19T05:48:21.673Z,24.20
2022-08-19T05:50:54.197Z,24.20
2022-08-19T05:53:27.414Z,24.36
2022-08-19T05:56:00.397Z,24.51
2022-08-19T05:58:34.096Z,24.66
2022-08-19T06:01:28.732Z,24.79
2022-08-19T06:04:01.107Z,24.97
2022-08-19T06:06:36.324Z,25.13
2022-08-19T06:09:12.151Z,25.24
2022-08-19T06:11:54.099Z,25.49
2022-08-19T06:14:28.878Z,25.49
2022-08-19T06:17:06.788Z,25.69
2022-08-19T06:19:40.926Z,25.86
2022-08-19T06:22:14.228Z,26.08
2022-08-19T06:24:47.723Z,26.26
2022-08-19T06:27:21.322Z,26.32
2022-08-19T06:29:55.248Z,26.31
2022-08-19T06:32:28.741Z,26.40
2022-08-19T06:35:01.784Z,26.54
2022-08-19T06:37:34.879Z,26.63
2022-08-19T06:40:09.688Z,26.72
2022-08-19T06:42:45.221Z,26.86
2022-08-19T06:45:15.795Z,27.06
2022-08-19T06:47:49.301Z,27.23
2022-08-19T06:50:22.091Z,27.43
2022-08-19T06:52:56.436Z,27.45
2022-08-19T06:55:31.020Z,27.53
2022-08-19T06:58:06.504Z,27.62
2022-08-19T07:00:38.924Z,27.68
2022-08-19T07:03:13.259Z,27.73
2022-08-19T07:05:47.325Z,27.86
2022-08-19T07:08:20.257Z,28.02
2022-08-19T07:10:52.852Z,28.14
2022-08-19T07:13:26.626Z,28.33
2022-08-19T07:15:59.094Z,28.47
2022-08-19T07:18:32.557Z,28.54
2022-08-19T07:21:12.148Z,28.70
2022-08-19T07:23:46.259Z,28.91
2022-08-19T07:26:42.241Z,29.02
2022-08-19T07:29:17.098Z,29.01
2022-08-19T07:31:52.137Z,29.18
2022-08-19T07:34:26.477Z,29.30
2022-08-19T07:36:58.986Z,29.46
2022-08-19T07:39:34.615Z,29.55
2022-08-19T07:42:11.086Z,29.64
2022-08-19T07:44:55.125Z,29.83
2022-08-19T07:47:48.122Z,30.00
2022-08-19T07:50:05.810Z,30.06
2022-08-19T07:52:40.797Z,30.19
2022-08-19T07:55:40.126Z,30.27
2022-08-19T07:57:48.869Z,30.24
2022-08-19T08:00:23.926Z,30.30
2022-08-19T08:02:56.441Z,30.26
2022-08-19T08:05:46.819Z,30.18
2022-08-19T08:08:27.652Z,30.17
2022-08-19T08:10:59.309Z,30.08
2022-08-19T08:13:31.718Z,30.00
2022-08-19T08:16:04.801Z,30.15
2022-08-19T08:18:40.861Z,30.36
2022-08-19T08:21:13.437Z,30.57
2022-08-19T08:23:45.964Z,30.68
2022-08-19T08:26:19.376Z,30.82
2022-08-19T08:28:52.127Z,30.69
2022-08-19T08:31:24.712Z,30.49
2022-08-19T08:33:58.173Z,30.53
2022-08-19T08:36:33.524Z,30.69
2022-08-19T08:39:05.996Z,30.78
2022-08-19T08:42:17.804Z,30.84
2022-08-19T08:47:33.721Z,31.06
2022-08-19T08:50:16.941Z,31.28
2022-08-19T08:52:53.270Z,31.45
2022-08-19T08:55:37.116Z,31.70
2022-08-19T08:58:29.541Z,31.87
2022-08-19T09:01:02.098Z,31.93
2022-08-19T09:03:34.577Z,31.92
2022-08-19T09:06:18.375Z,31.74
2022-08-19T09:09:12.125Z,31.64
2022-08-19T09:12:14.947Z,31.79
2022-08-19T09:14:55.361Z,31.87
2022-08-19T09:17:32.333Z,31.89
2022-08-19T09:20:10.526Z,32.07
2022-08-19T09:22:47.906Z,32.04
2022-08-19T09:25:26.629Z,31.95
2022-08-19T09:28:02.734Z,31.84
2022-08-19T09:30:43.210Z,31.91
2022-08-19T09:33:17.238Z,32.11
2022-08-19T09:35:53.270Z,32.12
2022-08-19T09:38:24.760Z,31.96
2022-08-19T09:40:58.757Z,31.77
2022-08-19T09:43:33.868Z,31.78
2022-08-19T09:46:10.498Z,31.83
2022-08-19T09:48:43.696Z,31.74
2022-08-19T09:51:18.698Z,31.69
2022-08-19T09:53:54.734Z,31.59
2022-08-19T09:56:28.328Z,31.29
2022-08-19T09:59:02.608Z,31.19
2022-08-19T10:01:35.774Z,31.15
2022-08-19T10:04:19.982Z,31.28
2022-08-19T10:06:47.013Z,31.16
2022-08-19T10:09:26.161Z,30.88
2022-08-19T10:11:55.225Z,30.69
2022-08-19T10:14:28.747Z,30.60
2022-08-19T10:17:01.951Z,30.44
2022-08-19T10:19:37.418Z,30.24
2022-08-19T10:22:10.116Z,30.17
2022-08-19T10:24:44.577Z,30.10
2022-08-19T10:27:17.020Z,30.36
2022-08-19T10:29:49.392Z,30.58
2022-08-19T10:32:33.807Z,30.75
2022-08-19T10:34:58.544Z,30.88
2022-08-19T10:37:32.485Z,30.86
2022-08-19T10:40:06.056Z,30.75
2022-08-19T10:42:39.369Z,30.58
2022-08-19T10:45:12.521Z,30.56
2022-08-19T10:47:45.065Z,30.49
2022-08-19T10:50:36.736Z,30.54
2022-08-19T10:53:11.565Z,30.45
2022-08-19T10:56:04.297Z,30.07
2022-08-19T10:58:36.840Z,29.91
2022-08-19T11:01:09.667Z,30.11
2022-08-19T11:03:42.528Z,30.19
2022-08-19T11:06:15.687Z,30.10
2022-08-19T11:08:48.559Z,29.91
2022-08-19T11:11:21.520Z,29.97
2022-08-19T11:13:54.188Z,29.98
2022-08-19T11:16:29.910Z,30.08
2022-08-19T11:19:04.127Z,30.06
2022-08-19T11:21:43.166Z,29.84
2022-08-19T11:24:19.317Z,29.86
2022-08-19T11:26:56.643Z,29.93
2022-08-19T11:29:29.279Z,30.00
2022-08-19T11:32:03.833Z,30.08
2022-08-19T11:34:38.794Z,30.09
2022-08-19T11:37:14.654Z,30.28
2022-08-19T11:39:53.301Z,30.39
2022-08-19T11:42:40.090Z,30.33
2022-08-19T11:45:13.756Z,30.11
2022-08-19T11:47:47.274Z,29.88
2022-08-19T11:50:20.177Z,29.66
2022-08-19T11:52:55.249Z,29.42
2022-08-19T11:55:27.835Z,29.18
2022-08-19T11:58:00.813Z,29.26
2022-08-19T12:00:36.685Z,29.37
2022-08-19T12:03:09.712Z,29.31
2022-08-19T12:05:42.954Z,29.16
2022-08-19T12:08:16.509Z,29.09
2022-08-19T12:10:49.898Z,28.97
2022-08-19T12:13:22.546Z,28.54
2022-08-19T12:15:55.860Z,28.54
2022-08-19T12:18:28.473Z,28.33
2022-08-19T12:21:01.695Z,28.13
2022-08-19T12:23:34.903Z,27.80
2022-08-19T12:26:07.522Z,27.54
2022-08-19T12:28:40.782Z,27.33
2022-08-19T12:31:13.281Z,27.14
2022-08-19T12:33:46.854Z,26.94
2022-08-19T12:36:19.349Z,26.74
2022-08-19T12:38:52.863Z,26.54
2022-08-19T12:41:25.531Z,26.38
2022-08-19T12:43:59.410Z,26.31
2022-08-19T12:46:33.833Z,26.24
2022-08-19T12:49:20.675Z,26.15
2022-08-19T12:51:41.275Z,26.04
2022-08-19T12:54:14.206Z,25.92
2022-08-19T12:56:47.651Z,25.80
2022-08-19T12:59:21.937Z,25.74
2022-08-19T13:01:54.695Z,25.70
2022-08-19T13:04:27.394Z,25.60
2022-08-19T13:07:00.486Z,25.53
2022-08-19T13:09:33.687Z,25.41
2022-08-19T13:12:09.529Z,25.32
2022-08-19T13:14:43.553Z,25.24
2022-08-19T13:17:16.589Z,25.16
2022-08-19T13:19:50.430Z,25.08
2022-08-19T13:22:23.149Z,25.04
2022-08-19T13:24:55.762Z,25.05
2022-08-19T13:27:28.145Z,24.98
2022-08-19T13:30:18.499Z,24.93
2022-08-19T13:33:09.131Z,24.88
2022-08-19T13:35:51.104Z,24.82
2022-08-19T13:38:24.088Z,24.78
2022-08-19T13:40:58.002Z,24.78
2022-08-19T13:43:31.297Z,24.78
2022-08-19T13:46:08.067Z,24.73
2022-08-19T13:48:42.213Z,24.67
2022-08-19T13:51:18.148Z,24.63
2022-08-19T13:53:51.739Z,24.62
2022-08-19T13:56:26.744Z,24.58
2022-08-19T13:58:59.342Z,24.52
2022-08-19T14:01:32.199Z,24.54
2022-08-19T14:04:06.480Z,24.58
2022-08-19T14:06:40.183Z,24.60
2022-08-19T14:09:13.591Z,24.64
2022-08-19T14:11:48.234Z,24.68
2022-08-19T14:14:20.619Z,24.67
2022-08-19T14:16:53.267Z,24.68
2022-08-19T14:19:26.156Z,24.73
2022-08-19T14:22:01.874Z,24.78
2022-08-19T14:24:34.737Z,24.76
2022-08-19T14:27:08.766Z,24.70
2022-08-19T14:29:42.857Z,24.63
2022-08-19T14:32:16.882Z,24.63
2022-08-19T14:34:49.970Z,24.64
2022-08-19T14:37:24.302Z,24.66
2022-08-19T14:39:57.368Z,24.70
2022-08-19T14:42:29.844Z,24.71
2022-08-19T14:45:02.831Z,24.74
2022-08-19T14:47:35.665Z,24.80
2022-08-19T14:50:17.927Z,24.83
2022-08-19T14:52:46.497Z,24.75
2022-08-19T14:55:19.520Z,24.63
2022-08-19T14:57:52.393Z,24.58
2022-08-19T15:00:25.155Z,24.53
2022-08-19T15:02:59.124Z,24.51
2022-08-19T15:05:32.631Z,24.45
2022-08-19T15:08:08.919Z,24.46
2022-08-19T15:10:42.699Z,24.41
2022-08-19T15:13:15.889Z,24.37
2022-08-19T15:15:50.041Z,24.33
2022-08-19T15:18:22.868Z,24.31
2022-08-19T15:20:57.165Z,24.27
2022-08-19T15:23:29.669Z,24.18
2022-08-19T15:26:03.012Z,24.13
2022-08-19T15:28:36.131Z,24.10
2022-08-19T15:31:09.629Z,24.12
2022-08-19T15:33:45.400Z,24.14
2022-08-19T15:36:18.906Z,24.16
2022-08-19T15:38:53.436Z,24.16
2022-08-19T15:41:30.859Z,24.11
2022-08-19T15:44:10.497Z,24.10
2022-08-19T15:46:44.793Z,24.07
2022-08-19T15:49:19.102Z,24.05
2022-08-19T15:51:54.422Z,24.03
2022-08-19T15:54:27.486Z,24.00
2022-08-19T15:57:17.359Z,23.96
2022-08-19T16:00:08.298Z,23.93
2022-08-19T16:03:00.223Z,23.87
2022-08-19T16:05:50.966Z,23.76
2022-08-19T16:08:24.458Z,23.72
2022-08-19T16:10:57.488Z,23.67
2022-08-19T16:13:30.057Z,23.66
2022-08-19T16:16:02.706Z,23.65
2022-08-19T16:18:37.478Z,23.60
2022-08-19T16:21:09.456Z,23.58
2022-08-19T16:23:42.165Z,23.52
2022-08-19T16:26:16.747Z,23.40
2022-08-19T16:28:49.609Z,23.31
2022-08-19T16:31:24.152Z,23.29
2022-08-19T16:33:57.039Z,23.28
2022-08-19T16:36:31.558Z,23.30
2022-08-19T16:39:04.516Z,23.31
2022-08-19T16:41:38.157Z,23.26
2022-08-19T16:44:12.339Z,23.21
2022-08-19T16:46:58.422Z,23.20
2022-08-19T16:49:54.190Z,23.20
2022-08-19T16:52:01.883Z,23.22
2022-08-19T16:54:35.992Z,23.21
2022-08-19T16:57:08.894Z,23.21
2022-08-19T16:59:48.829Z,23.21
2022-08-19T17:02:22.066Z,23.20
2022-08-19T17:04:58.741Z,23.16
2022-08-19T17:07:33.080Z,23.13
2022-08-19T17:10:05.827Z,23.08
2022-08-19T17:12:39.721Z,23.03
2022-08-19T17:15:12.650Z,23.02
2022-08-19T17:17:45.396Z,22.99
2022-08-19T17:20:17.754Z,22.94
2022-08-19T17:22:50.837Z,22.92
2022-08-19T17:25:26.689Z,22.90
2022-08-19T17:28:00.041Z,22.88
2022-08-19T17:30:32.637Z,22.86
2022-08-19T17:33:06.123Z,22.86
2022-08-19T17:35:40.949Z,22.85
2022-08-19T17:38:19.560Z,22.84
2022-08-19T17:40:53.090Z,22.84
2022-08-19T17:43:32.569Z,22.81
2022-08-19T17:46:03.454Z,22.80
2022-08-19T17:48:38.288Z,22.77
2022-08-19T17:51:22.548Z,22.74
2022-08-19T17:53:55.487Z,22.71
2022-08-19T17:56:28.908Z,22.65
2022-08-19T17:59:01.808Z,22.57
2022-08-19T18:01:52.335Z,22.51
2022-08-19T18:04:10.007Z,22.48
2022-08-19T18:06:46.636Z,22.46
2022-08-19T18:09:17.998Z,22.41
2022-08-19T18:11:53.859Z,22.38
2022-08-19T18:14:33.763Z,22.36
2022-08-19T18:17:09.116Z,22.33
2022-08-19T18:19:44.138Z,22.32
2022-08-19T18:22:30.689Z,22.29
2022-08-19T18:25:04.694Z,22.27
2022-08-19T18:27:38.805Z,22.20
2022-08-19T18:30:12.775Z,22.17
2022-08-19T18:32:47.308Z,22.13
2022-08-19T18:35:26.374Z,22.08
2022-08-19T18:38:01.774Z,22.02
2022-08-19T18:40:53.582Z,21.99
2022-08-19T18:43:44.194Z,21.97
2022-08-19T18:46:36.818Z,21.93
2022-08-19T18:49:11.065Z,21.90
2022-08-19T18:51:43.631Z,21.90
2022-08-19T18:54:16.004Z,21.90
2022-08-19T18:56:48.355Z,21.87
2022-08-19T18:59:27.149Z,21.86
2022-08-19T19:02:00.872Z,21.86
2022-08-19T19:04:37.457Z,21.87
2022-08-19T19:07:11.488Z,21.88
2022-08-19T19:09:44.488Z,21.92
2022-08-19T19:12:18.849Z,21.97
2022-08-19T19:14:52.330Z,22.01
2022-08-19T19:17:26.906Z,22.04
2022-08-19T19:19:59.480Z,22.00
2022-08-19T19:22:32.049Z,21.95
2022-08-19T19:25:05.857Z,21.90
2022-08-19T19:27:40.613Z,21.82
2022-08-19T19:30:14.088Z,21.76
2022-08-19T19:32:47.280Z,21.73
2022-08-19T19:35:19.653Z,21.72
2022-08-19T19:37:52.926Z,21.71
2022-08-19T19:40:26.794Z,21.71
2022-08-19T19:43:00.356Z,21.68
2022-08-19T19:45:34.657Z,21.66
2022-08-19T19:48:09.636Z,21.67
2022-08-19T19:50:42.677Z,21.68
2022-08-19T19:53:18.346Z,21.73
2022-08-19T19:55:52.975Z,21.75
2022-08-19T19:58:28.717Z,21.76
2022-08-19T20:01:01.413Z,21.77
2022-08-19T20:03:37.637Z,21.73
2022-08-19T20:06:11.561Z,21.71
2022-08-19T20:09:02.044Z,21.68
2022-08-19T20:11:50.150Z,21.65
2022-08-19T20:14:27.819Z,21.59
2022-08-19T20:17:00.780Z,21.57
2022-08-19T20:19:36.282Z,21.59
2022-08-19T20:22:09.102Z,21.58
2022-08-19T20:24:42.842Z,21.61
2022-08-19T20:27:15.450Z,21.62
2022-08-19T20:29:49.640Z,21.60
2022-08-19T20:32:23.713Z,21.63
2022-08-19T20:34:56.116Z,21.63
2022-08-19T20:37:28.724Z,21.59
2022-08-19T20:40:01.153Z,21.56
2022-08-19T20:42:35.241Z,21.54
2022-08-19T20:45:09.866Z,21.49
2022-08-19T20:47:44.684Z,21.46
2022-08-19T20:50:17.974Z,21.46
2022-08-19T20:52:53.701Z,21.44
2022-08-19T20:55:25.328Z,21.44
2022-08-19T20:57:58.797Z,21.48
2022-08-19T21:00:31.401Z,21.49
2022-08-19T21:03:04.029Z,21.51
2022-08-19T21:05:38.231Z,21.47
2022-08-19T21:08:11.049Z,21.43
2022-08-19T21:10:44.783Z,21.41
2022-08-19T21:13:18.390Z,21.40
2022-08-19T21:15:51.619Z,21.41
2022-08-19T21:18:26.874Z,21.41
2022-08-19T21:20:59.339Z,21.36
2022-08-19T21:23:33.123Z,21.25
2022-08-19T21:26:07.575Z,21.14
2022-08-19T21:28:39.991Z,21.06
2022-08-19T21:31:13.639Z,20.99
2022-08-19T21:33:47.071Z,20.94
2022-08-19T21:36:19.658Z,20.89
2022-08-19T21:38:52.205Z,20.83
2022-08-19T21:41:24.712Z,20.74
2022-08-19T21:43:57.173Z,20.65
2022-08-19T21:46:32.562Z,20.64
2022-08-19T21:49:05.453Z,20.62
2022-08-19T21:51:38.617Z,20.60
2022-08-19T21:54:14.019Z,20.55
2022-08-19T21:56:45.697Z,20.53
2022-08-19T21:59:18.228Z,20.48
2022-08-19T22:02:05.704Z,20.38
2022-08-19T22:04:26.731Z,20.30
2022-08-19T22:06:59.391Z,20.32
2022-08-19T22:09:31.978Z,20.30
2022-08-19T22:12:05.462Z,20.28
2022-08-19T22:15:00.074Z,20.25
2022-08-19T22:17:32.892Z,20.24
2022-08-19T22:20:10.249Z,20.19
2022-08-19T22:22:49.461Z,20.20
2022-08-19T22:25:46.687Z,20.18
2022-08-19T22:28:27.556Z,20.14
2022-08-19T22:30:54.289Z,20.13
2022-08-19T22:33:29.014Z,20.07
2022-08-19T22:36:02.597Z,20.03
2022-08-19T22:38:35.880Z,20.04
2022-08-19T22:41:08.454Z,20.05
2022-08-19T22:43:41.479Z,20.01
2022-08-19T22:46:16.930Z,19.99
2022-08-19T22:48:48.460Z,20.00
2022-08-19T22:51:40.752Z,20.04
2022-08-19T22:54:13.672Z,20.02
2022-08-19T22:56:47.501Z,19.97
2022-08-19T22:59:20.330Z,19.90
2022-08-19T23:01:55.012Z,19.85
2022-08-19T23:04:31.118Z,19.81
2022-08-19T23:07:03.568Z,19.79
2022-08-19T23:09:36.020Z,19.77
2022-08-19T23:12:11.049Z,19.75
2022-08-19T23:14:44.731Z,19.74
2022-08-19T23:17:17.652Z,19.73
2022-08-19T23:19:53.674Z,19.72
2022-08-19T23:22:27.136Z,19.72
2022-08-19T23:25:07.077Z,19.76
2022-08-19T23:27:58.289Z,19.76
2022-08-19T23:30:31.484Z,19.77
2022-08-19T23:33:12.918Z,19.80
2022-08-19T23:35:44.835Z,19.86
2022-08-19T23:38:19.670Z,19.88
2022-08-19T23:40:53.547Z,19.93
2022-08-19T23:43:28.692Z,19.99
2022-08-19T23:46:10.418Z,20.03
2022-08-19T23:48:39.897Z,20.03
2022-08-19T23:51:13.064Z,20.06
2022-08-19T23:53:45.586Z,20.06
2022-08-19T23:56:18.510Z,20.03
2022-08-19T23:58:51.149Z,19.98
